Time;durP1;ratioP1;P1;durP2;ratioP2;P2;SDS_P1;SDS_P2;PMS_P1;PMS_P2;Temp;Humidity;BMP_temperature;BMP_pressure;BME280_temperature;BME280_humidity;BME280_pressure;Samples;Min_cycle;Max_cycle;Signal;HPM_P1;HPM_P2
2021/03/24 00:00:26;;;;;;;;;94.00;64.33;;;;;2.26;67.48;100447.78;4881035;29;8937;-72
2021/03/24 00:03:21;;;;;;;;;92.00;65.33;;;;;2.17;67.85;100451.13;4880746;29;8864;-72
2021/03/24 00:05:51;;;;;;;;;82.67;62.00;;;;;2.23;68.18;100447.28;4882394;29;8872;-72
2021/03/24 00:08:47;;;;;;;;;77.67;61.00;;;;;2.33;67.74;100453.75;4868480;29;8871;-71
2021/03/24 00:11:43;;;;;;;;;78.33;62.33;;;;;2.23;68.25;100452.72;4869314;29;8975;-72
2021/03/24 00:14:39;;;;;;;;;74.33;62.67;;;;;2.30;68.32;100444.25;4882991;29;8982;-72
2021/03/24 00:17:06;;;;;;;;;73.67;58.33;;;;;2.29;68.09;100450.78;4881393;29;8872;-73
2021/03/24 00:20:07;;;;;;;;;71.00;58.00;;;;;2.25;68.40;100444.25;4880262;29;8903;-72
2021/03/24 00:23:04;;;;;;;;;79.67;62.00;;;;;2.14;68.65;100443.47;4863540;29;8894;-72
2021/03/24 00:26:00;;;;;;;;;65.67;55.33;;;;;2.09;69.38;100443.53;4880222;29;8879;-73
2021/03/24 00:28:55;;;;;;;;;75.00;60.67;;;;;2.29;68.66;100442.59;4881195;29;8910;-71
2021/03/24 00:31:51;;;;;;;;;76.00;59.67;;;;;2.11;69.37;100446.78;4882122;29;8887;-72
2021/03/24 00:34:18;;;;;;;;;63.67;54.33;;;;;2.17;69.71;100436.66;4881083;29;8860;-72
2021/03/24 00:37:14;;;;;;;;;73.33;58.00;;;;;2.29;69.19;100444.50;4880631;29;8966;-72
2021/03/24 00:40:14;;;;;;;;;83.33;63.00;;;;;2.15;70.38;100436.94;4862349;29;8885;-72
2021/03/24 00:43:10;;;;;;;;;78.33;63.00;;;;;2.17;70.38;100429.28;4863381;29;8890;-72
2021/03/24 00:46:06;;;;;;;;;73.67;63.00;;;;;2.13;71.28;100443.75;4871611;29;8907;-72
2021/03/24 00:49:02;;;;;;;;;67.67;56.33;;;;;2.17;71.33;100439.41;4879843;29;8915;-72
2021/03/24 00:51:58;;;;;;;;;67.00;57.00;;;;;2.10;71.93;100438.88;4874927;29;8847;-72
2021/03/24 00:54:53;;;;;;;;;83.33;65.00;;;;;2.20;72.08;100433.38;4883023;29;8871;-72
2021/03/24 00:57:49;;;;;;;;;83.67;62.33;;;;;2.29;71.97;100442.59;4880029;29;8936;-72
2021/03/24 01:00:46;;;;;;;;;78.00;61.33;;;;;2.22;71.58;100436.63;4883143;29;8946;-72
2021/03/24 01:03:42;;;;;;;;;85.33;67.00;;;;;2.32;71.86;100433.84;4881358;29;8871;-72
2021/03/24 01:06:39;;;;;;;;;84.00;66.67;;;;;2.12;72.65;100442.94;4882183;29;8998;-72
2021/03/24 01:09:35;;;;;;;;;78.33;64.00;;;;;2.08;73.22;100436.44;4881248;29;9076;-72
2021/03/24 01:12:32;;;;;;;;;82.33;65.00;;;;;2.04;73.98;100440.00;4880642;29;8896;-73
2021/03/24 01:15:31;;;;;;;;;89.00;66.67;;;;;2.19;73.52;100438.00;4891465;29;8875;-73
2021/03/24 01:17:59;;;;;;;;;76.67;57.67;;;;;2.32;73.11;100436.56;4881035;29;8971;-73
2021/03/24 01:20:30;;;;;;;;;83.33;65.67;;;;;2.19;73.43;100442.66;4861645;29;8867;-73
2021/03/24 01:23:25;;;;;;;;;82.33;63.33;;;;;2.09;73.87;100437.25;4879677;29;8909;-73
2021/03/24 01:26:21;;;;;;;;;84.33;66.00;;;;;2.14;73.57;100440.75;4881357;29;8882;-73
2021/03/24 01:29:18;;;;;;;;;84.67;63.67;;;;;2.33;73.65;100443.66;4902777;29;8878;-73
2021/03/24 01:32:14;;;;;;;;;72.67;52.67;;;;;2.17;74.39;100444.84;4879870;29;8847;-73
2021/03/24 01:35:10;;;;;;;;;80.33;60.00;;;;;2.08;75.43;100446.53;4880038;29;8875;-73
2021/03/24 01:38:06;;;;;;;;;82.00;63.00;;;;;2.18;75.30;100444.56;4880831;29;8846;-73
2021/03/24 01:41:02;;;;;;;;;71.00;53.33;;;;;2.41;74.97;100450.44;4880462;29;8898;-73
2021/03/24 01:43:58;;;;;;;;;64.33;48.67;;;;;2.24;75.46;100453.53;4880261;29;8867;-72
2021/03/24 01:46:54;;;;;;;;;58.33;50.67;;;;;2.26;75.92;100450.53;4867685;29;8994;-72
2021/03/24 01:49:50;;;;;;;;;45.33;41.00;;;;;2.18;76.34;100452.75;4879448;29;8883;-72
2021/03/24 01:52:47;;;;;;;;;79.67;62.00;;;;;2.45;76.12;100457.78;4879489;29;8871;-72
2021/03/24 01:55:42;;;;;;;;;55.00;49.00;;;;;2.53;75.50;100456.38;4879480;29;8868;-71
2021/03/24 01:58:38;;;;;;;;;53.00;47.00;;;;;2.27;76.69;100463.88;4879600;29;8859;-71
2021/03/24 02:01:34;;;;;;;;;52.00;48.33;;;;;2.34;76.03;100461.66;4878598;29;8888;-72
2021/03/24 02:04:30;;;;;;;;;48.67;42.00;;;;;2.33;76.95;100462.75;4878856;29;8884;-72
2021/03/24 02:07:34;;;;;;;;;37.00;37.00;;;;;2.49;76.33;100458.84;4879193;29;8856;-72
2021/03/24 02:10:38;;;;;;;;;37.00;32.67;;;;;2.31;76.74;100458.69;4878826;29;8876;-72
2021/03/24 02:13:40;;;;;;;;;37.67;33.67;;;;;2.60;76.26;100469.69;4878895;29;8894;-73
2021/03/24 02:16:43;;;;;;;;;37.00;36.00;;;;;2.53;76.31;100461.00;4878735;29;8868;-73
2021/03/24 02:20:01;;;;;;;;;36.67;36.67;;;;;2.55;75.96;100473.28;4878232;29;8890;-73
2021/03/24 02:23:26;;;;;;;;;29.67;29.33;;;;;2.30;77.13;100467.97;4878901;29;8872;-73
2021/03/24 02:26:33;;;;;;;;;39.33;39.33;;;;;2.63;76.67;100467.22;4878178;29;8887;-73
2021/03/24 02:29:30;;;;;;;;;33.67;33.67;;;;;2.50;76.58;100463.19;4878582;29;8872;-73
2021/03/24 02:32:30;;;;;;;;;28.67;28.00;;;;;2.33;76.94;100457.31;4879058;29;8867;-72
2021/03/24 02:35:30;;;;;;;;;32.00;30.67;;;;;2.09;78.27;100462.63;4878444;29;8875;-73
2021/03/24 02:38:28;;;;;;;;;43.00;39.67;;;;;2.16;78.40;100462.31;4878036;29;9671;-73
2021/03/24 02:41:25;;;;;;;;;36.67;36.67;;;;;2.35;78.13;100460.56;4879443;29;8876;-72
2021/03/24 02:44:20;;;;;;;;;35.67;35.33;;;;;2.20;78.28;100460.66;4879452;29;8860;-72
2021/03/24 02:47:17;;;;;;;;;36.67;36.33;;;;;2.22;79.03;100461.19;4878371;29;8868;-72
2021/03/24 02:50:14;;;;;;;;;39.67;38.33;;;;;2.43;78.01;100442.78;4878300;29;8875;-73
2021/03/24 02:53:13;;;;;;;;;42.67;41.33;;;;;2.51;78.01;100453.91;4880407;29;8887;-73
2021/03/24 02:56:11;;;;;;;;;43.00;41.00;;;;;2.66;77.66;100444.00;4878435;29;8982;-73
2021/03/24 02:59:08;;;;;;;;;38.67;34.33;;;;;2.71;77.69;100455.69;4879158;29;8880;-72
2021/03/24 03:02:14;;;;;;;;;41.00;38.67;;;;;2.65;78.19;100454.09;4878892;29;8867;-72
2021/03/24 03:04:49;;;;;;;;;46.33;44.00;;;;;2.69;77.83;100460.63;4879986;29;8884;-72
2021/03/24 03:08:05;;;;;;;;;42.67;38.33;;;;;2.66;77.79;100460.38;4878375;29;8864;-72
2021/03/24 03:11:19;;;;;;;;;38.67;37.67;;;;;2.69;77.67;100454.38;4879224;29;8852;-72
2021/03/24 03:14:30;;;;;;;;;54.67;46.33;;;;;2.58;78.27;100455.50;4865673;29;8875;-73
2021/03/24 03:17:20;;;;;;;;;49.00;44.00;;;;;2.66;78.59;100452.19;4879255;29;8876;-73
2021/03/24 03:20:22;;;;;;;;;46.00;43.00;;;;;2.52;78.79;100457.44;4878323;29;8998;-72
2021/03/24 03:23:21;;;;;;;;;61.33;45.33;;;;;2.57;78.58;100468.34;4879107;29;8872;-73
2021/03/24 03:26:21;;;;;;;;;41.33;41.33;;;;;2.57;78.20;100464.81;4878858;29;8872;-73
2021/03/24 03:29:18;;;;;;;;;51.00;45.33;;;;;2.60;78.37;100472.41;4878861;29;8868;-73
2021/03/24 03:32:19;;;;;;;;;47.00;44.00;;;;;2.68;78.60;100467.16;4866196;29;8872;-73
2021/03/24 03:35:24;;;;;;;;;51.00;45.00;;;;;2.58;78.48;100472.72;4878214;29;8868;-73
2021/03/24 03:38:24;;;;;;;;;49.33;45.00;;;;;2.70;78.79;100472.38;4879223;29;8856;-72
2021/03/24 03:41:21;;;;;;;;;52.00;45.00;;;;;2.62;78.90;100473.78;4879212;29;8891;-73
2021/03/24 03:44:14;;;;;;;;;37.00;37.00;;;;;2.77;78.28;100479.16;4865006;29;8993;-73
2021/03/24 03:47:12;;;;;;;;;37.00;36.33;;;;;2.48;79.38;100486.44;4865318;29;8943;-73
2021/03/24 03:50:13;;;;;;;;;47.00;43.33;;;;;2.69;78.91;100479.75;4877462;29;8963;-74
2021/03/24 03:53:17;;;;;;;;;40.33;37.33;;;;;2.60;79.33;100486.06;4879447;29;8917;-74
2021/03/24 03:56:20;;;;;;;;;45.67;43.33;;;;;2.45;80.05;100476.91;4870206;29;8889;-74
2021/03/24 03:59:28;;;;;;;;;47.33;42.00;;;;;2.54;79.29;100481.75;4879158;29;8963;-73
2021/03/24 04:02:31;;;;;;;;;39.00;34.67;;;;;2.68;79.05;100486.28;4881852;29;8890;-74
2021/03/24 04:05:09;;;;;;;;;32.33;32.33;;;;;2.53;79.81;100501.94;4882205;29;8871;-74
2021/03/24 04:08:10;;;;;;;;;32.33;32.33;;;;;2.71;79.58;100490.38;4869012;29;8880;-73
2021/03/24 04:11:08;;;;;;;;;32.00;32.00;;;;;2.53;79.36;100497.34;4881452;29;8851;-74
2021/03/24 04:13:58;;;;;;;;;40.67;35.33;;;;;2.58;79.78;100499.19;4882621;29;8879;-73
2021/03/24 04:16:27;;;;;;;;;38.67;37.00;;;;;2.61;79.49;100493.19;4883022;29;9614;-74
2021/03/24 04:19:28;;;;;;;;;47.33;43.67;;;;;2.26;80.93;100510.56;4879316;29;8990;-74
2021/03/24 04:22:28;;;;;;;;;44.00;42.00;;;;;2.38;80.82;100495.50;4882613;29;8951;-74
2021/03/24 04:25:31;;;;;;;;;60.33;47.00;;;;;2.50;80.53;100504.16;4882035;29;8879;-74
2021/03/24 04:28:34;;;;;;;;;52.33;46.00;;;;;2.36;81.15;100508.59;4869238;29;8860;-73
2021/03/24 04:31:18;;;;;;;;;64.67;53.67;;;;;2.30;81.74;100506.16;4881489;29;8899;-72
2021/03/24 04:34:15;;;;;;;;;55.33;50.33;;;;;2.37;80.84;100507.50;4880022;29;8863;-73
2021/03/24 04:37:13;;;;;;;;;69.00;55.67;;;;;2.60;80.63;100510.66;4880567;29;8880;-73
2021/03/24 04:40:30;;;;;;;;;59.33;48.00;;;;;2.70;79.84;100510.59;4880325;29;8868;-73
2021/03/24 04:43:31;;;;;;;;;55.33;46.00;;;;;2.57;80.20;100522.97;4881266;29;8883;-74
2021/03/24 04:46:34;;;;;;;;;43.67;38.33;;;;;2.56;80.70;100525.97;4880394;29;8958;-74
2021/03/24 04:49:36;;;;;;;;;34.33;31.00;;;;;2.58;80.84;100531.97;4866811;29;8892;-73
2021/03/24 04:52:34;;;;;;;;;53.33;45.67;;;;;2.82;79.88;100537.56;4880630;29;8875;-73
2021/03/24 04:55:28;;;;;;;;;40.67;40.33;;;;;2.72;79.88;100530.25;4871452;29;8876;-73
2021/03/24 04:57:58;;;;;;;;;56.33;46.00;;;;;2.89;79.98;100538.88;4881906;29;8984;-73
2021/03/24 05:01:00;;;;;;;;;29.00;29.00;;;;;2.83;80.36;100537.25;4881869;29;8868;-73
2021/03/24 05:03:41;;;;;;;;;45.00;43.67;;;;;2.83;80.50;100547.38;4880644;29;8963;-73
2021/03/24 05:06:43;;;;;;;;;38.33;38.33;;;;;2.90;79.21;100550.59;4882319;29;8922;-74
2021/03/24 05:09:11;;;;;;;;;32.33;30.67;;;;;2.82;80.02;100541.09;4864257;29;8894;-73
2021/03/24 05:11:48;;;;;;;;;45.33;42.33;;;;;3.02;79.33;100548.34;4879756;29;8879;-73
2021/03/24 05:14:57;;;;;;;;;39.00;37.00;;;;;3.09;79.26;100550.78;4879276;29;8903;-73
2021/03/24 05:17:28;;;;;;;;;35.67;35.67;;;;;3.08;79.54;100551.88;4880514;29;8906;-73
2021/03/24 05:20:44;;;;;;;;;31.00;30.33;;;;;3.02;79.26;100553.81;4879666;29;8863;-73
2021/03/24 05:23:41;;;;;;;;;32.33;30.67;;;;;3.09;79.92;100556.22;4880143;29;8835;-73
2021/03/24 05:26:40;;;;;;;;;47.67;44.00;;;;;3.25;78.89;100552.28;4878445;29;11848;-73
2021/03/24 05:29:50;;;;;;;;;39.33;39.33;;;;;3.01;79.89;100555.72;4879852;29;8871;-73
2021/03/24 05:32:50;;;;;;;;;49.00;44.33;;;;;3.33;79.42;100552.47;4867605;29;8879;-72
2021/03/24 05:36:14;;;;;;;;;31.67;28.00;;;;;3.13;79.17;100551.81;4864608;29;8870;-72
2021/03/24 05:39:18;;;;;;;;;43.33;42.67;;;;;3.37;78.63;100560.91;4860824;29;11861;-72
2021/03/24 05:41:48;;;;;;;;;36.00;36.00;;;;;3.36;78.62;100562.03;4861333;29;11836;-72
2021/03/24 05:44:46;;;;;;;;;36.00;33.33;;;;;3.27;79.12;100566.47;4858227;29;11821;-73
2021/03/24 05:47:57;;;;;;;;;46.00;43.00;;;;;3.49;77.94;100575.03;4881238;29;11763;-73
2021/03/24 05:51:24;;;;;;;;;35.00;35.00;;;;;3.33;78.70;100579.00;4879557;29;11737;-74
2021/03/24 05:54:32;;;;;;;;;33.33;33.33;;;;;3.45;79.03;100575.88;4879762;29;11784;-73
2021/03/24 05:58:04;;;;;;;;;32.33;32.00;;;;;3.35;79.06;100574.88;4868002;29;11715;-73
2021/03/24 06:01:13;;;;;;;;;38.33;38.33;;;;;3.65;78.36;100585.84;4867887;29;11699;-73
2021/03/24 06:04:50;;;;;;;;;34.00;31.33;;;;;3.59;78.47;100590.53;4880106;29;11751;-73
2021/03/24 06:08:27;;;;;;;;;37.67;35.67;;;;;3.65;84.80;100594.06;4859631;29;11731;-75
2021/03/24 06:11:41;;;;;;;;;49.00;44.33;;;;;4.15;87.85;100599.03;4878502;29;11917;-75
2021/03/24 06:14:57;;;;;;;;;45.75;42.75;;;;;4.04;85.61;100586.56;4882653;29;11735;-75
2021/03/24 06:18:19;;;;;;;;;52.67;47.33;;;;;4.24;82.81;100598.41;4877011;29;11808;-73
2021/03/24 06:21:15;;;;;;;;;46.00;42.25;;;;;4.31;84.83;100602.44;4879689;29;11691;-75
2021/03/24 06:24:41;;;;;;;;;51.00;44.00;;;;;5.08;85.32;100618.69;4869927;29;11721;-74
2021/03/24 06:28:08;;;;;;;;;42.00;40.25;;;;;5.06;82.86;100623.69;4878752;29;11681;-74
2021/03/24 06:31:12;;;;;;;;;43.50;40.75;;;;;5.13;83.57;100626.84;4881292;29;11700;-74
2021/03/24 06:34:21;;;;;;;;;33.50;31.75;;;;;5.31;83.97;100630.72;4876761;29;11746;-73
2021/03/24 06:37:45;;;;;;;;;32.50;30.75;;;;;5.95;85.11;100633.81;4869951;29;11684;-74
2021/03/24 06:40:58;;;;;;;;;50.00;44.00;;;;;5.77;82.34;100639.03;4877876;29;11761;-74
2021/03/24 06:44:21;;;;;;;;;32.75;32.00;;;;;5.74;80.87;100647.84;4878682;29;11719;-73
2021/03/24 06:47:16;;;;;;;;;64.25;53.25;;;;;6.38;85.87;100648.16;4878055;29;11800;-73
2021/03/24 06:50:39;;;;;;;;;41.25;40.50;;;;;6.96;85.55;100650.25;4878734;29;11820;-73
2021/03/24 06:54:13;;;;;;;;;40.25;38.00;;;;;7.36;86.14;100651.31;4862957;29;11838;-73
2021/03/24 06:57:48;;;;;;;;;68.50;56.25;;;;;7.47;84.44;100665.66;4890966;29;11754;-73
2021/03/24 07:01:02;;;;;;;;;34.25;32.50;;;;;6.70;77.88;100666.47;4880009;29;11757;-73
2021/03/24 07:04:39;;;;;;;;;45.25;40.75;;;;;7.31;80.53;100670.69;4860654;29;11761;-74
2021/03/24 07:07:44;;;;;;;;;84.75;60.50;;;;;6.73;72.98;100671.34;4836155;29;11725;-73
2021/03/24 07:11:02;;;;;;;;;41.00;36.25;;;;;6.73;76.22;100671.34;4859249;29;11795;-72
2021/03/24 07:14:16;;;;;;;;;43.00;40.00;;;;;6.15;72.90;100680.16;4871466;29;11825;-74
2021/03/24 07:17:12;;;;;;;;;43.50;39.00;;;;;5.96;76.57;100693.09;4865373;29;11826;-73
2021/03/24 07:20:27;;;;;;;;;37.75;32.50;;;;;5.72;74.89;100693.19;4877199;29;11751;-73
2021/03/24 07:23:28;;;;;;;;;33.25;32.00;;;;;6.14;76.39;100703.25;4876789;29;11736;-73
2021/03/24 07:26:42;;;;;;;;;29.00;29.00;;;;;5.71;75.57;100708.00;4867795;29;11721;-74
2021/03/24 07:29:51;;;;;;;;;43.75;41.50;;;;;5.81;75.34;100700.44;4876726;29;11726;-73
2021/03/24 07:33:04;;;;;;;;;37.75;36.00;;;;;5.45;72.55;100700.16;4877630;29;12711;-73
2021/03/24 07:36:14;;;;;;;;;32.25;32.25;;;;;5.59;72.69;100706.50;4882125;29;11735;-73
2021/03/24 07:39:19;;;;;;;;;37.00;35.00;;;;;5.35;72.13;100694.00;4877615;29;11669;-73
2021/03/24 07:42:45;;;;;;;;;27.75;27.75;;;;;5.52;71.58;100694.28;4878905;29;11824;-72
2021/03/24 07:45:53;;;;;;;;;18.75;18.75;;;;;5.42;72.28;100692.50;4880915;29;11705;-73
2021/03/24 07:48:51;;;;;;;;;22.50;22.50;;;;;5.29;72.23;100691.34;4880683;29;11829;-73
2021/03/24 07:51:59;;;;;;;;;19.75;19.25;;;;;5.22;71.80;100695.56;4879517;29;11707;-72
2021/03/24 07:55:24;;;;;;;;;22.75;22.75;;;;;4.86;72.69;100696.00;4880154;29;11685;-72
2021/03/24 07:58:35;;;;;;;;;21.00;21.00;;;;;4.96;72.63;100697.78;4878479;29;11651;-71
2021/03/24 08:01:59;;;;;;;;;23.75;22.50;;;;;4.90;72.14;100708.00;4879325;29;11737;-72
2021/03/24 08:05:25;;;;;;;;;22.75;21.75;;;;;5.12;71.95;100706.63;4882438;29;11719;-72
2021/03/24 08:08:30;;;;;;;;;25.25;24.25;;;;;4.80;73.19;100702.66;4882985;29;11695;-72
2021/03/24 08:11:28;;;;;;;;;20.75;20.75;;;;;4.80;73.04;100712.78;4880519;29;11778;-73
2021/03/24 08:14:16;;;;;;;;;23.25;21.75;;;;;5.04;72.59;100710.84;4882354;29;11799;-73
2021/03/24 08:17:40;;;;;;;;;24.00;24.00;;;;;5.28;71.98;100708.06;4880091;29;11715;-73
2021/03/24 08:20:59;;;;;;;;;26.50;23.50;;;;;5.55;71.46;100719.22;4879410;29;11752;-73
2021/03/24 08:24:13;;;;;;;;;25.75;24.00;;;;;5.02;71.70;100713.06;4877740;29;11696;-73
2021/03/24 08:26:52;;;;;;;;;22.00;22.00;;;;;5.23;71.92;100721.88;4879965;29;12557;-73
2021/03/24 08:30:21;;;;;;;;;25.00;22.00;;;;;5.33;71.82;100715.41;4882762;29;12420;-73
2021/03/24 08:33:45;;;;;;;;;32.50;31.00;;;;;4.90;72.51;100710.75;4870236;29;11746;-72
2021/03/24 08:37:08;;;;;;;;;35.00;31.25;;;;;5.02;72.67;100716.63;4880487;29;11720;-73
2021/03/24 08:40:23;;;;;;;;;24.00;23.50;;;;;4.82;73.33;100716.06;4880678;29;11730;-73
2021/03/24 08:43:37;;;;;;;;;23.00;22.00;;;;;4.84;73.04;100720.16;4873370;29;11724;-76
2021/03/24 08:46:27;;;;;;;;;20.25;20.25;;;;;4.79;73.38;100722.94;4879424;29;12633;-72
2021/03/24 08:49:35;;;;;;;;;25.50;25.50;;;;;5.35;72.05;100726.91;4880637;29;11724;-73
2021/03/24 08:52:42;;;;;;;;;21.75;20.50;;;;;5.16;71.98;100724.16;4874067;29;11800;-72
2021/03/24 08:55:50;;;;;;;;;30.00;28.25;;;;;5.30;71.65;100731.34;4870180;29;11707;-73
2021/03/24 08:59:30;;;;;;;;;18.75;18.75;;;;;4.77;73.56;100733.38;4880219;29;11712;-73
2021/03/24 09:02:43;;;;;;;;;26.75;25.75;;;;;4.73;74.75;100724.91;4872790;29;11792;-74
2021/03/24 09:05:43;;;;;;;;;19.50;19.50;;;;;4.52;74.91;100728.97;4881077;29;11722;-74
2021/03/24 09:08:30;;;;;;;;;15.00;15.00;;;;;4.38;76.56;100728.03;4881430;29;11799;-73
2021/03/24 09:11:19;;;;;;;;;23.25;19.50;;;;;4.61;75.66;100727.25;4846505;29;11721;-74
2021/03/24 09:14:24;;;;;;;;;26.00;25.25;;;;;4.63;76.74;100732.44;4849422;29;11773;-72
2021/03/24 09:17:19;;;;;;;;;23.25;21.00;;;;;4.30;77.20;100720.44;4871772;29;12590;-73
2021/03/24 09:20:29;;;;;;;;;24.25;23.50;;;;;4.45;77.27;100723.03;4861561;29;11700;-73
2021/03/24 09:23:22;;;;;;;;;21.75;21.75;;;;;4.38;77.88;100726.13;4877119;29;11717;-73
2021/03/24 09:26:55;;;;;;;;;23.50;23.50;;;;;4.43;77.60;100722.50;4867733;29;11701;-73
2021/03/24 09:30:31;;;;;;;;;30.25;24.50;;;;;4.57;77.33;100726.19;4879584;29;11727;-73
2021/03/24 09:33:26;;;;;;;;;17.75;16.00;;;;;4.41;76.46;100711.00;4882199;29;11849;-73
2021/03/24 09:36:21;;;;;;;;;16.75;16.75;;;;;4.36;76.40;100708.31;4890815;29;11843;-73
2021/03/24 09:39:23;;;;;;;;;19.00;18.75;;;;;4.59;76.90;100710.28;4880845;29;11741;-72
2021/03/24 09:42:20;;;;;;;;;25.25;23.00;;;;;4.68;75.92;100705.81;4879240;29;11741;-71
2021/03/24 09:45:28;;;;;;;;;19.25;17.00;;;;;4.64;75.67;100707.47;4879811;29;11683;-72
2021/03/24 09:48:25;;;;;;;;;24.75;24.00;;;;;4.85;75.44;100720.97;4879258;29;11799;-73
2021/03/24 09:51:34;;;;;;;;;20.25;20.00;;;;;4.82;74.52;100727.81;4879170;29;11696;-73
2021/03/24 09:54:31;;;;;;;;;28.00;28.00;;;;;5.09;73.76;100731.91;4879688;29;11692;-73
2021/03/24 09:57:44;;;;;;;;;30.75;30.75;;;;;5.37;73.25;100732.91;4871971;29;11693;-73
2021/03/24 10:00:18;;;;;;;;;27.25;27.25;;;;;5.20;73.16;100723.25;4879070;29;11718;-72
2021/03/24 10:03:29;;;;;;;;;26.50;25.50;;;;;5.51;72.42;100734.63;4877140;29;11803;-73
2021/03/24 10:06:51;;;;;;;;;21.00;20.50;;;;;5.36;71.78;100728.53;4876909;29;11801;-73
2021/03/24 10:09:26;;;;;;;;;24.25;22.75;;;;;5.27;71.21;100736.59;4876803;29;11800;-73
2021/03/24 10:11:57;;;;;;;;;13.75;13.75;;;;;4.99;70.97;100727.38;4880338;29;11671;-72
2021/03/24 10:15:16;;;;;;;;;20.25;19.50;;;;;5.24;71.00;100734.47;4877093;29;11125;-72
2021/03/24 10:17:47;;;;;;;;;20.75;20.75;;;;;5.08;70.13;100736.59;4868949;29;11726;-73
2021/03/24 10:21:04;;;;;;;;;23.75;22.00;;;;;5.20;70.47;100736.97;4880884;29;11704;-73
2021/03/24 10:24:22;;;;;;;;;21.00;21.00;;;;;5.34;70.30;100739.00;4884872;29;11691;-74
2021/03/24 10:27:25;;;;;;;;;20.50;20.25;;;;;5.46;69.82;100725.66;4876986;29;11705;-73
2021/03/24 10:30:31;;;;;;;;;18.25;17.50;;;;;4.80;71.08;100735.53;4880245;29;11712;-73
2021/03/24 10:33:40;;;;;;;;;16.50;16.50;;;;;4.66;71.84;100732.66;4876321;29;11777;-73
2021/03/24 10:37:37;;;;;;;;;28.75;26.50;;;;;4.81;71.59;100745.38;4877567;29;11670;-73
2021/03/24 10:40:29;;;;;;;;;20.00;20.00;;;;;5.13;70.51;100741.16;4847344;29;11724;-73
2021/03/24 10:43:07;;;;;;;;;25.00;25.00;;;;;5.34;69.97;100736.25;4879044;29;11726;-72
2021/03/24 10:46:05;;;;;;;;;24.50;23.25;;;;;5.01;70.36;100733.38;4876762;29;12444;-74
2021/03/24 10:49:05;;;;;;;;;21.50;21.50;;;;;5.25;69.99;100725.94;4875471;29;11734;-73
2021/03/24 10:52:12;;;;;;;;;19.00;18.50;;;;;5.23;69.45;100727.34;4875463;29;11678;-75
2021/03/24 10:55:19;;;;;;;;;21.75;21.75;;;;;5.35;68.96;100735.13;4875856;29;11732;-73
2021/03/24 10:58:49;;;;;;;;;28.25;27.75;;;;;5.64;68.00;100733.06;4877248;29;12444;-75
2021/03/24 11:01:24;;;;;;;;;23.00;23.00;;;;;5.69;68.07;100735.75;4878685;29;11749;-77
2021/03/24 11:04:24;;;;;;;;;27.75;23.75;;;;;5.46;69.27;100740.19;4877949;29;12409;-74
2021/03/24 11:07:30;;;;;;;;;30.50;26.50;;;;;5.74;68.58;100749.38;4877198;29;11761;-74
2021/03/24 11:10:54;;;;;;;;;17.50;17.50;;;;;5.23;68.58;100736.38;4874408;29;11814;-75
2021/03/24 11:13:28;;;;;;;;;18.25;18.25;;;;;4.98;69.60;100743.00;4882589;29;11718;-76
2021/03/24 11:16:38;;;;;;;;;19.50;19.50;;;;;5.14;69.88;100746.38;4881489;29;11694;-75
2021/03/24 11:19:40;;;;;;;;;15.00;15.00;;;;;5.02;70.14;100743.22;4882464;29;11768;-74
2021/03/24 11:22:08;;;;;;;;;58.75;46.00;;;;;5.26;69.76;100754.16;4881522;29;11669;-75
2021/03/24 11:25:06;;;;;;;;;27.50;25.50;;;;;5.05;70.28;100744.56;4882546;29;11710;-74
2021/03/24 11:28:18;;;;;;;;;45.25;41.50;;;;;5.28;68.99;100747.28;4881413;29;11844;-73
2021/03/24 11:31:19;;;;;;;;;36.00;35.25;;;;;5.17;69.49;100744.97;4869898;29;11810;-74
2021/03/24 11:34:28;;;;;;;;;32.75;32.75;;;;;5.05;70.07;100736.34;4882982;29;11719;-75
2021/03/24 11:37:27;;;;;;;;;26.50;25.00;;;;;4.98;70.32;100745.75;4871050;29;11717;-75
2021/03/24 11:40:37;;;;;;;;;25.50;21.00;;;;;5.02;71.93;100746.78;4850885;29;11774;-79
2021/03/24 11:43:15;;;;;;;;;68.00;56.67;;;;;7.14;90.95;100751.09;4871082;29;11694;-76
2021/03/24 11:46:20;;;;;;;;;47.75;43.75;;;;;7.20;80.56;100757.28;4886573;29;8879;-77
2021/03/24 11:49:43;;;;;;;;;48.75;42.50;;;;;7.65;81.07;100766.50;4870664;29;11844;-78
2021/03/24 11:52:37;;;;;;;;;60.25;49.50;;;;;8.11;81.42;100768.19;4866208;29;11822;-77
2021/03/24 11:55:55;;;;;;;;;28.25;27.00;;;;;6.93;72.23;100764.44;4863299;29;12579;-78
2021/03/24 11:58:49;;;;;;;;;33.50;32.75;;;;;7.16;77.63;100772.78;4848181;29;11850;-78
2021/03/24 12:01:54;;;;;;;;;31.00;27.75;;;;;6.15;72.87;100772.69;4871618;29;11750;-79
2021/03/24 12:05:06;;;;;;;;;37.00;37.00;;;;;6.59;78.74;100778.50;4881253;29;11751;-77
2021/03/24 12:07:54;;;;;;;;;32.25;29.25;;;;;6.13;76.76;100790.28;4881786;29;11728;-79
2021/03/24 12:10:26;;;;;;;;;32.75;32.75;;;;;5.74;75.31;100781.50;4886388;29;11784;-80
2021/03/24 12:13:00;;;;;;;;;27.50;27.50;;;;;5.56;76.63;100785.88;4890892;29;11741;-80
2021/03/24 12:15:32;;;;;;;;;29.25;27.50;;;;;5.61;78.41;100782.25;4882246;29;11754;-79
2021/03/24 12:18:51;;;;;;;;;34.00;33.00;;;;;5.71;77.28;100782.91;4869733;29;11735;-79
2021/03/24 12:21:30;;;;;;;;;26.75;26.75;;;;;5.67;75.98;100787.34;4865553;29;11744;-78
2021/03/24 12:24:06;;;;;;;;;42.75;41.25;;;;;6.62;79.79;100786.16;4881591;29;11806;-78
2021/03/24 12:27:11;;;;;;;;;26.00;26.00;;;;;6.78;76.17;100792.22;4880426;29;11695;-78
2021/03/24 12:30:45;;;;;;;;;26.75;26.75;;;;;6.40;76.12;100784.06;4880353;29;11791;-79
2021/03/24 12:33:57;;;;;;;;;31.50;30.75;;;;;6.15;75.08;100787.25;4871170;29;11703;-80
2021/03/24 12:36:29;;;;;;;;;31.50;30.75;;;;;6.75;77.79;100789.22;4864894;29;11876;-80
2021/03/24 12:39:40;;;;;;;;;23.25;22.25;;;;;6.65;71.49;100798.47;4867482;29;11727;-79
2021/03/24 12:42:32;;;;;;;;;40.00;39.00;;;;;6.71;73.65;100789.03;4865503;29;11725;-79
2021/03/24 12:45:01;;;;;;;;;28.50;28.50;;;;;7.18;75.92;100787.03;4881108;29;11742;-80
2021/03/24 12:48:05;;;;;;;;;29.25;29.25;;;;;8.04;80.19;100798.09;4880226;29;11727;-78
2021/03/24 12:50:39;;;;;;;;;32.25;30.75;;;;;7.86;77.97;100794.41;4881268;29;11902;-77
2021/03/24 12:53:21;;;;;;;;;33.00;33.00;;;;;7.22;77.69;100799.88;4880144;29;11730;-79
2021/03/24 12:56:26;;;;;;;;;21.25;21.25;;;;;7.42;72.24;100806.09;4874373;29;11724;-79
2021/03/24 12:59:39;;;;;;;;;28.25;28.25;;;;;7.04;73.08;100797.22;4882909;29;11705;-78
2021/03/24 13:03:20;;;;;;;;;23.00;23.00;;;;;5.91;67.76;100813.97;4875846;29;11679;-78
2021/03/24 13:06:17;;;;;;;;;33.50;32.00;;;;;5.85;68.18;100808.53;4869941;29;11908;-78
2021/03/24 13:09:18;;;;;;;;;26.25;25.25;;;;;5.76;68.86;100812.22;4879026;29;11708;-75
2021/03/24 13:12:17;;;;;;;;;29.25;27.75;;;;;5.55;69.01;100807.00;4864863;29;11699;-76
2021/03/24 13:15:36;;;;;;;;;28.50;27.25;;;;;5.11;69.98;100806.44;4872513;29;11928;-75
2021/03/24 13:18:45;;;;;;;;;32.25;29.50;;;;;5.28;70.10;100817.75;4879117;29;11721;-75
2021/03/24 13:21:36;;;;;;;;;28.00;28.00;;;;;5.33;70.03;100814.97;4879265;29;11721;-75
2021/03/24 13:24:53;;;;;;;;;23.50;23.50;;;;;4.96;71.36;100810.16;4872538;29;11782;-75
2021/03/24 13:27:52;;;;;;;;;31.75;31.75;;;;;5.11;71.00;100820.97;4873450;29;11746;-75
2021/03/24 13:30:35;;;;;;;;;25.00;24.75;;;;;5.08;70.88;100818.81;4880118;29;11723;-76
2021/03/24 13:34:10;;;;;;;;;18.75;18.75;;;;;4.84;71.18;100817.97;4879898;29;11769;-75
2021/03/24 13:37:13;;;;;;;;;23.75;23.75;;;;;4.87;71.54;100817.41;4878445;29;11719;-76
2021/03/24 13:39:52;;;;;;;;;28.00;27.50;;;;;4.75;72.13;100820.50;4868337;29;11741;-75
2021/03/24 13:43:08;;;;;;;;;27.00;26.50;;;;;4.88;71.73;100832.72;4880979;29;11915;-76
2021/03/24 13:46:00;;;;;;;;;25.50;24.50;;;;;4.85;71.78;100823.16;4884369;29;11686;-75
2021/03/24 13:49:00;;;;;;;;;32.50;32.50;;;;;4.80;72.35;100823.22;4893209;29;11712;-76
2021/03/24 13:52:11;;;;;;;;;31.75;29.00;;;;;4.59;72.57;100827.25;4874145;29;11710;-75
2021/03/24 13:55:44;;;;;;;;;32.75;32.75;;;;;4.62;72.45;100830.22;4877721;29;11724;-74
2021/03/24 13:58:58;;;;;;;;;38.25;36.75;;;;;4.96;71.20;100829.34;4877098;29;11729;-74